createdAt,value
2022-07-25T00:00:20.491Z,1012.15
2022-07-25T00:01:20.864Z,1012.11
2022-07-25T00:02:20.400Z,1012.11
2022-07-25T00:03:20.314Z,1012.10
2022-07-25T00:04:20.286Z,1012.07
2022-07-25T00:05:20.199Z,1012.08
2022-07-25T00:06:20.133Z,1012.09
2022-07-25T00:07:20.089Z,1012.08
2022-07-25T00:08:20.019Z,1012.05
2022-07-25T00:09:19.956Z,1012.07
2022-07-25T00:10:19.900Z,1012.03
2022-07-25T00:11:19.839Z,1012.05
2022-07-25T00:12:19.787Z,1012.01
2022-07-25T00:13:19.721Z,1012.00
2022-07-25T00:14:19.664Z,1011.98
2022-07-25T00:15:19.604Z,1011.94
2022-07-25T00:16:19.659Z,1011.93
2022-07-25T00:17:19.529Z,1011.92
2022-07-25T00:18:19.429Z,1011.89
2022-07-25T00:19:19.384Z,1011.85
2022-07-25T00:20:19.310Z,1011.88
2022-07-25T00:21:19.250Z,1011.87
2022-07-25T00:22:19.355Z,1011.87
2022-07-25T00:23:19.153Z,1011.84
2022-07-25T00:24:19.096Z,1011.82
2022-07-25T00:25:19.023Z,1011.81
2022-07-25T00:26:18.970Z,1011.80
2022-07-25T00:27:18.893Z,1011.78
2022-07-25T00:28:18.830Z,1011.80
2022-07-25T00:29:18.773Z,1011.76
2022-07-25T00:30:18.713Z,1011.82
2022-07-25T00:31:18.694Z,1011.78
2022-07-25T00:32:18.600Z,1011.76
2022-07-25T00:33:18.538Z,1011.77
2022-07-25T00:34:18.475Z,1011.72
2022-07-25T00:35:18.418Z,1011.76
2022-07-25T00:36:18.358Z,1011.74
2022-07-25T00:37:18.298Z,1011.71
2022-07-25T00:38:18.254Z,1011.70
2022-07-25T00:39:18.181Z,1011.70
2022-07-25T00:40:18.122Z,1011.72
2022-07-25T00:41:18.061Z,1011.70
2022-07-25T00:42:18.004Z,1011.76
2022-07-25T00:43:17.944Z,1011.74
2022-07-25T00:44:17.903Z,1011.75
2022-07-25T00:45:17.825Z,1011.70
2022-07-25T00:46:18.844Z,1011.69
2022-07-25T00:47:17.710Z,1011.70
2022-07-25T00:48:17.655Z,1011.66
2022-07-25T00:49:17.655Z,1011.63
2022-07-25T00:50:17.527Z,1011.65
2022-07-25T00:51:17.469Z,1011.64
2022-07-25T00:52:17.414Z,1011.59
2022-07-25T00:53:17.351Z,1011.59
2022-07-25T00:54:17.295Z,1011.58
2022-07-25T00:55:17.233Z,1011.58
2022-07-25T00:56:17.172Z,1011.58
2022-07-25T00:57:17.118Z,1011.58
2022-07-25T00:58:17.054Z,1011.58
2022-07-25T00:59:17.006Z,1011.57
2022-07-25T01:00:16.958Z,1011.55
2022-07-25T01:01:17.009Z,1011.57
2022-07-25T01:02:16.866Z,1011.58
2022-07-25T01:03:16.815Z,1011.54
2022-07-25T01:04:16.754Z,1011.56
2022-07-25T01:05:16.638Z,1011.52
2022-07-25T01:06:16.582Z,1011.54
2022-07-25T01:07:16.523Z,1011.56
2022-07-25T01:08:16.464Z,1011.51
2022-07-25T01:09:16.407Z,1011.52
2022-07-25T01:10:16.346Z,1011.51
2022-07-25T01:11:16.287Z,1011.50
2022-07-25T01:12:16.226Z,1011.46
2022-07-25T01:13:16.168Z,1011.51
2022-07-25T01:14:16.110Z,1011.54
2022-07-25T01:15:16.051Z,1011.50
2022-07-25T01:16:16.037Z,1011.51
2022-07-25T01:17:15.931Z,1011.50
2022-07-25T01:18:15.871Z,1011.53
2022-07-25T01:19:15.813Z,1011.50
2022-07-25T01:20:15.754Z,1011.52
2022-07-25T01:21:15.692Z,1011.51
2022-07-25T01:22:15.665Z,1011.49
2022-07-25T01:23:15.579Z,1011.48
2022-07-25T01:24:15.516Z,1011.42
2022-07-25T01:25:15.455Z,1011.44
2022-07-25T01:26:15.401Z,1011.43
2022-07-25T01:27:17.348Z,1011.41
2022-07-25T01:28:15.286Z,1011.40
2022-07-25T01:29:15.219Z,1011.42
2022-07-25T01:30:15.169Z,1011.41
2022-07-25T01:31:15.147Z,1011.38
2022-07-25T01:32:15.042Z,1011.39
2022-07-25T01:33:14.983Z,1011.37
2022-07-25T01:34:14.924Z,1011.33
2022-07-25T01:35:14.869Z,1011.36
2022-07-25T01:36:14.809Z,1011.34
2022-07-25T01:37:14.742Z,1011.37
2022-07-25T01:38:14.689Z,1011.35
2022-07-25T01:39:14.627Z,1011.30
2022-07-25T01:40:14.591Z,1011.35
2022-07-25T01:41:14.509Z,1011.32
2022-07-25T01:42:14.452Z,1011.33
2022-07-25T01:43:14.390Z,1011.30
2022-07-25T01:44:14.337Z,1011.29
2022-07-25T01:45:14.269Z,1011.32
2022-07-25T01:46:14.273Z,1011.26
2022-07-25T01:47:14.154Z,1011.23
2022-07-25T01:48:14.094Z,1011.27
2022-07-25T01:49:14.102Z,1011.24
2022-07-25T01:50:13.980Z,1011.25
2022-07-25T01:51:13.925Z,1011.21
2022-07-25T01:52:13.860Z,1011.16
2022-07-25T01:53:13.799Z,1011.16
2022-07-25T01:54:13.738Z,1011.15
2022-07-25T01:55:13.683Z,1011.16
2022-07-25T01:56:13.620Z,1011.15
2022-07-25T01:57:13.559Z,1011.15
2022-07-25T01:58:13.502Z,1011.16
2022-07-25T01:59:13.439Z,1011.16
2022-07-25T02:00:13.386Z,1011.14
2022-07-25T02:01:13.349Z,1011.10
2022-07-25T02:02:13.267Z,1011.07
2022-07-25T02:03:13.207Z,1011.05
2022-07-25T02:04:13.189Z,1011.05
2022-07-25T02:05:13.158Z,1011.05
2022-07-25T02:06:13.029Z,1011.05
2022-07-25T02:07:12.966Z,1011.02
2022-07-25T02:08:12.907Z,1011.02
2022-07-25T02:09:12.846Z,1011.01
2022-07-25T02:10:12.804Z,1011.03
2022-07-25T02:11:12.729Z,1010.99
2022-07-25T02:12:12.676Z,1010.97
2022-07-25T02:13:12.611Z,1010.97
2022-07-25T02:14:12.552Z,1010.99
2022-07-25T02:15:12.493Z,1010.95
2022-07-25T02:16:12.433Z,1010.98
2022-07-25T02:17:12.401Z,1010.97
2022-07-25T02:18:12.342Z,1010.95
2022-07-25T02:19:12.252Z,1010.92
2022-07-25T02:20:12.196Z,1010.91
2022-07-25T02:21:13.823Z,1010.94
2022-07-25T02:22:12.076Z,1010.93
2022-07-25T02:23:12.018Z,1010.93
2022-07-25T02:24:11.958Z,1010.92
2022-07-25T02:25:12.868Z,1010.88
2022-07-25T02:26:11.837Z,1010.89
2022-07-25T02:27:11.778Z,1010.89
2022-07-25T02:28:11.732Z,1010.87
2022-07-25T02:29:11.659Z,1010.90
2022-07-25T02:30:11.676Z,1010.86
2022-07-25T02:31:11.644Z,1010.83
2022-07-25T02:32:11.482Z,1010.82
2022-07-25T02:33:11.433Z,1010.84
2022-07-25T02:34:11.364Z,1010.82
2022-07-25T02:35:13.076Z,1010.78
2022-07-25T02:36:11.243Z,1010.74
2022-07-25T02:37:11.184Z,1010.78
2022-07-25T02:38:11.128Z,1010.73
2022-07-25T02:39:11.063Z,1010.74
2022-07-25T02:40:11.005Z,1010.69
2022-07-25T02:41:10.947Z,1010.71
2022-07-25T02:42:10.884Z,1010.70
2022-07-25T02:43:10.825Z,1010.65
2022-07-25T02:44:10.872Z,1010.66
2022-07-25T02:45:10.705Z,1010.68
2022-07-25T02:46:10.752Z,1010.67
2022-07-25T02:47:10.588Z,1010.66
2022-07-25T02:48:10.532Z,1010.67
2022-07-25T02:49:10.530Z,1010.63
2022-07-25T02:50:14.512Z,1010.60
2022-07-25T02:51:10.349Z,1010.61
2022-07-25T02:52:10.290Z,1010.60
2022-07-25T02:53:10.228Z,1010.62
2022-07-25T02:54:10.487Z,1010.57
2022-07-25T02:55:10.149Z,1010.58
2022-07-25T02:56:10.051Z,1010.53
2022-07-25T02:57:09.995Z,1010.53
2022-07-25T02:58:09.933Z,1010.53
2022-07-25T02:59:09.875Z,1010.53
2022-07-25T03:00:09.873Z,1010.55
2022-07-25T03:01:09.885Z,1010.56
2022-07-25T03:02:09.692Z,1010.55
2022-07-25T03:03:09.637Z,1010.52
2022-07-25T03:04:10.409Z,1010.56
2022-07-25T03:05:09.512Z,1010.55
2022-07-25T03:06:09.457Z,1010.51
2022-07-25T03:07:09.416Z,1010.50
2022-07-25T03:08:09.335Z,1010.49
2022-07-25T03:09:09.278Z,1010.49
2022-07-25T03:10:11.059Z,1010.47
2022-07-25T03:11:09.210Z,1010.49
2022-07-25T03:12:09.095Z,1010.46
2022-07-25T03:13:09.035Z,1010.47
2022-07-25T03:14:09.244Z,1010.48
2022-07-25T03:15:08.916Z,1010.45
2022-07-25T03:16:08.858Z,1010.44
2022-07-25T03:17:08.850Z,1010.44
2022-07-25T03:18:09.495Z,1010.40
2022-07-25T03:19:08.683Z,1010.37
2022-07-25T03:20:08.620Z,1010.35
2022-07-25T03:21:08.561Z,1010.35
2022-07-25T03:22:08.500Z,1010.36
2022-07-25T03:23:08.440Z,1010.33
2022-07-25T03:24:08.757Z,1010.31
2022-07-25T03:25:15.365Z,1010.30
2022-07-25T03:26:08.260Z,1010.34
2022-07-25T03:27:08.200Z,1010.30
2022-07-25T03:28:08.145Z,1010.29
2022-07-25T03:29:08.079Z,1010.27
2022-07-25T03:30:08.022Z,1010.27
2022-07-25T03:31:07.961Z,1010.25
2022-07-25T03:32:07.937Z,1010.23
2022-07-25T03:33:07.843Z,1010.23
2022-07-25T03:34:08.281Z,1010.26
2022-07-25T03:35:07.726Z,1010.27
2022-07-25T03:36:07.663Z,1010.24
2022-07-25T03:37:07.604Z,1010.22
2022-07-25T03:38:07.545Z,1010.20
2022-07-25T03:39:08.400Z,1010.23
2022-07-25T03:40:07.427Z,1010.19
2022-07-25T03:41:07.365Z,1010.22
2022-07-25T03:42:07.307Z,1010.22
2022-07-25T03:43:07.248Z,1010.21
2022-07-25T03:44:07.650Z,1010.20
2022-07-25T03:45:07.206Z,1010.21
2022-07-25T03:46:07.198Z,1010.17
2022-07-25T03:47:07.007Z,1010.19
2022-07-25T03:48:06.946Z,1010.16
2022-07-25T03:49:07.101Z,1010.19
2022-07-25T03:50:06.826Z,1010.15
2022-07-25T03:51:07.370Z,1010.16
2022-07-25T03:52:06.710Z,1010.15
2022-07-25T03:53:06.645Z,1010.17
2022-07-25T03:54:07.055Z,1010.16
2022-07-25T03:55:06.527Z,1010.15
2022-07-25T03:56:06.470Z,1010.17
2022-07-25T03:57:06.419Z,1010.18
2022-07-25T03:58:06.349Z,1010.19
2022-07-25T03:59:06.291Z,1010.13
2022-07-25T04:00:06.233Z,1010.07
2022-07-25T04:01:06.218Z,1010.10
2022-07-25T04:02:06.164Z,1010.13
2022-07-25T04:03:06.052Z,1010.10
2022-07-25T04:04:06.257Z,1010.11
2022-07-25T04:05:05.932Z,1010.10
2022-07-25T04:06:05.873Z,1010.05
2022-07-25T04:07:05.812Z,1010.04
2022-07-25T04:08:05.753Z,1010.08
2022-07-25T04:09:05.691Z,1010.03
2022-07-25T04:10:05.638Z,1010.04
2022-07-25T04:11:05.603Z,1010.04
2022-07-25T04:12:05.524Z,1010.06
2022-07-25T04:13:05.462Z,1010.01
2022-07-25T04:14:05.702Z,1010.02
2022-07-25T04:15:05.343Z,1010.00
2022-07-25T04:16:05.339Z,1009.98
2022-07-25T04:17:05.243Z,1009.99
2022-07-25T04:18:05.161Z,1009.95
2022-07-25T04:19:05.099Z,1009.96
2022-07-25T04:20:05.630Z,1009.94
2022-07-25T04:21:05.005Z,1009.94
2022-07-25T04:22:04.925Z,1009.94
2022-07-25T04:23:04.864Z,1009.92
2022-07-25T04:24:05.092Z,1009.89
2022-07-25T04:25:04.740Z,1009.90
2022-07-25T04:26:04.705Z,1009.88
2022-07-25T04:27:04.695Z,1009.89
2022-07-25T04:28:04.599Z,1009.88
2022-07-25T04:29:04.530Z,1009.88
2022-07-25T04:30:04.438Z,1009.89
2022-07-25T04:31:04.379Z,1009.90
2022-07-25T04:32:04.423Z,1009.90
2022-07-25T04:33:04.263Z,1009.87
2022-07-25T04:34:04.568Z,1009.86
2022-07-25T04:35:04.143Z,1009.87
2022-07-25T04:36:04.087Z,1009.86
2022-07-25T04:37:04.024Z,1009.84
2022-07-25T04:38:07.614Z,1009.80
2022-07-25T04:39:03.902Z,1009.76
2022-07-25T04:40:03.847Z,1009.71
2022-07-25T04:41:03.788Z,1009.69
2022-07-25T04:42:03.731Z,1009.68
2022-07-25T04:43:03.665Z,1009.63
2022-07-25T04:44:03.993Z,1009.62
2022-07-25T04:45:03.548Z,1009.56
2022-07-25T04:46:03.569Z,1009.58
2022-07-25T04:47:03.426Z,1009.58
2022-07-25T04:48:03.371Z,1009.52
2022-07-25T04:49:03.381Z,1009.44
2022-07-25T04:50:03.249Z,1009.46
2022-07-25T04:51:03.186Z,1009.39
2022-07-25T04:52:03.134Z,1009.39
2022-07-25T04:53:03.068Z,1009.35
2022-07-25T04:54:03.305Z,1009.30
2022-07-25T04:55:02.950Z,1009.28
2022-07-25T04:56:02.891Z,1009.26
2022-07-25T04:57:02.828Z,1009.27
2022-07-25T04:58:02.773Z,1009.20
2022-07-25T04:59:06.695Z,1009.22
2022-07-25T05:00:02.658Z,1009.24
2022-07-25T05:01:02.654Z,1009.28
2022-07-25T05:02:02.617Z,1009.22
2022-07-25T05:03:02.474Z,1009.23
2022-07-25T05:04:02.536Z,1009.20
2022-07-25T05:05:03.076Z,1009.21
2022-07-25T05:06:02.294Z,1009.18
2022-07-25T05:07:02.233Z,1009.25
2022-07-25T05:08:02.179Z,1009.22
2022-07-25T05:09:02.116Z,1009.23
2022-07-25T05:10:02.066Z,1009.21
2022-07-25T05:11:02.002Z,1009.27
2022-07-25T05:12:01.937Z,1009.22
2022-07-25T05:13:01.876Z,1009.19
2022-07-25T05:14:01.821Z,1009.20
2022-07-25T05:15:01.759Z,1009.21
2022-07-25T05:16:01.789Z,1009.26
2022-07-25T05:17:01.664Z,1009.23
2022-07-25T05:18:01.584Z,1009.25
2022-07-25T05:19:01.537Z,1009.26
2022-07-25T05:20:01.465Z,1009.19
2022-07-25T05:21:01.410Z,1009.23
2022-07-25T05:22:01.348Z,1009.21
2022-07-25T05:23:01.295Z,1009.22
2022-07-25T05:24:01.227Z,1009.16
2022-07-25T05:25:01.186Z,1009.20
2022-07-25T05:26:01.118Z,1009.21
2022-07-25T05:27:01.060Z,1009.19
2022-07-25T05:28:01.005Z,1009.19
2022-07-25T05:29:00.946Z,1009.14
2022-07-25T05:30:00.881Z,1009.18
2022-07-25T05:31:00.927Z,1009.16
2022-07-25T05:32:00.845Z,1009.17
2022-07-25T05:33:00.720Z,1009.17
2022-07-25T05:34:00.645Z,1009.20
2022-07-25T05:35:00.608Z,1009.16
2022-07-25T05:36:00.533Z,1009.14
2022-07-25T05:37:00.478Z,1009.09
2022-07-25T05:38:00.416Z,1009.15
2022-07-25T05:39:00.365Z,1009.08
2022-07-25T05:40:00.302Z,1009.08
2022-07-25T05:41:00.245Z,1009.11
2022-07-25T05:42:00.187Z,1009.09
2022-07-25T05:43:03.308Z,1009.09
2022-07-25T05:44:00.089Z,1009.17
2022-07-25T05:45:00.036Z,1009.10
2022-07-25T05:45:59.984Z,1009.08
2022-07-25T05:46:59.962Z,1009.03
2022-07-25T05:47:59.837Z,1009.02
2022-07-25T05:48:59.848Z,1009.05
2022-07-25T05:49:59.731Z,1009.04
2022-07-25T05:50:59.666Z,1009.04
2022-07-25T05:51:59.642Z,1009.03
2022-07-25T05:52:59.554Z,1009.03
2022-07-25T05:53:59.493Z,1009.07
2022-07-25T05:54:59.437Z,1009.03
2022-07-25T05:55:59.387Z,1009.05
2022-07-25T05:56:59.323Z,1009.05
2022-07-25T05:57:59.264Z,1009.03
2022-07-25T05:58:59.227Z,1009.01
2022-07-25T05:59:59.151Z,1009.05
2022-07-25T06:00:59.112Z,1009.00
2022-07-25T06:01:59.178Z,1009.01
2022-07-25T06:02:59.121Z,1008.99
2022-07-25T06:03:58.929Z,1008.98
2022-07-25T06:04:58.870Z,1009.01
2022-07-25T06:05:58.815Z,1008.99
2022-07-25T06:06:58.766Z,1008.98
2022-07-25T06:07:58.705Z,1008.93
2022-07-25T06:08:58.662Z,1008.95
2022-07-25T06:09:58.589Z,1008.91
2022-07-25T06:10:58.526Z,1008.94
2022-07-25T06:12:01.099Z,1008.83
2022-07-25T06:12:58.438Z,1008.87
2022-07-25T06:13:58.370Z,1008.85
2022-07-25T06:14:58.306Z,1008.83
2022-07-25T06:15:58.307Z,1008.86
2022-07-25T06:16:58.190Z,1008.82
2022-07-25T06:17:58.135Z,1008.84
2022-07-25T06:18:58.075Z,1008.84
2022-07-25T06:19:58.019Z,1008.82
2022-07-25T06:20:57.962Z,1008.83
2022-07-25T06:21:57.906Z,1008.84
2022-07-25T06:22:57.853Z,1008.74
2022-07-25T06:23:57.803Z,1008.82
2022-07-25T06:24:57.741Z,1008.80
2022-07-25T06:25:57.681Z,1008.76
2022-07-25T06:26:57.631Z,1008.75
2022-07-25T06:27:57.572Z,1008.75
2022-07-25T06:28:57.514Z,1008.73
2022-07-25T06:29:57.534Z,1008.68
2022-07-25T06:30:57.402Z,1008.68
2022-07-25T06:31:57.427Z,1008.64
2022-07-25T06:32:57.320Z,1008.64
2022-07-25T06:33:57.245Z,1008.61
2022-07-25T06:34:57.179Z,1008.58
2022-07-25T06:35:57.121Z,1008.61
2022-07-25T06:36:57.113Z,1008.57
2022-07-25T06:37:57.008Z,1008.56
2022-07-25T06:38:56.957Z,1008.54
2022-07-25T06:39:56.899Z,1008.54
2022-07-25T06:40:56.843Z,1008.55
2022-07-25T06:41:56.788Z,1008.52
2022-07-25T06:42:56.730Z,1008.52
2022-07-25T06:43:56.679Z,1008.54
2022-07-25T06:44:56.625Z,1008.53
2022-07-25T06:45:56.567Z,1008.51
2022-07-25T06:46:56.564Z,1008.52
2022-07-25T06:47:56.451Z,1008.52
2022-07-25T06:48:56.489Z,1008.54
2022-07-25T06:49:56.341Z,1008.49
2022-07-25T06:50:56.290Z,1008.51
2022-07-25T06:51:56.230Z,1008.50
2022-07-25T06:52:56.178Z,1008.48
2022-07-25T06:53:56.118Z,1008.47
2022-07-25T06:54:56.064Z,1008.47
2022-07-25T06:55:56.014Z,1008.44
2022-07-25T06:56:55.956Z,1008.44
2022-07-25T06:57:55.900Z,1008.46
2022-07-25T06:58:55.853Z,1008.41
2022-07-25T06:59:55.789Z,1008.37
2022-07-25T07:00:55.781Z,1008.39
2022-07-25T07:01:55.678Z,1008.38
2022-07-25T07:02:55.649Z,1008.39
2022-07-25T07:03:55.632Z,1008.34
2022-07-25T07:04:55.519Z,1008.32
2022-07-25T07:05:55.462Z,1008.27
2022-07-25T07:06:55.434Z,1008.28
2022-07-25T07:07:55.423Z,1008.27
2022-07-25T07:08:55.301Z,1008.24
2022-07-25T07:09:55.243Z,1008.20
2022-07-25T07:10:55.190Z,1008.20
2022-07-25T07:11:55.131Z,1008.18
2022-07-25T07:12:55.075Z,1008.14
2022-07-25T07:13:55.021Z,1008.13
2022-07-25T07:14:54.966Z,1008.15
2022-07-25T07:15:54.953Z,1008.16
2022-07-25T07:16:54.861Z,1008.15
2022-07-25T07:17:54.801Z,1008.12
2022-07-25T07:18:54.746Z,1008.14
2022-07-25T07:19:54.692Z,1008.11
2022-07-25T07:20:54.637Z,1008.06
2022-07-25T07:21:54.588Z,1008.09
2022-07-25T07:22:54.528Z,1008.06
2022-07-25T07:23:54.477Z,1008.06
2022-07-25T07:24:54.420Z,1008.04
2022-07-25T07:25:54.363Z,1007.99
2022-07-25T07:26:54.319Z,1007.98
2022-07-25T07:27:54.254Z,1007.96
2022-07-25T07:28:54.204Z,1007.99
2022-07-25T07:29:54.144Z,1008.03
2022-07-25T07:31:54.173Z,1008.06
2022-07-25T07:32:53.989Z,1007.96
2022-07-25T07:33:53.931Z,1007.95
2022-07-25T07:34:53.880Z,1007.97
2022-07-25T07:35:53.891Z,1008.00
2022-07-25T07:36:53.800Z,1007.95
2022-07-25T07:37:53.804Z,1007.99
2022-07-25T07:38:53.711Z,1007.95
2022-07-25T07:39:53.647Z,1007.92
2022-07-25T07:40:53.624Z,1007.91
2022-07-25T07:41:53.658Z,1007.93
2022-07-25T07:42:53.528Z,1007.87
2022-07-25T07:43:53.416Z,1007.84
2022-07-25T07:44:53.341Z,1007.81
2022-07-25T07:45:53.282Z,1007.85
2022-07-25T07:46:53.351Z,1007.85
2022-07-25T07:47:53.183Z,1007.80
2022-07-25T07:48:53.190Z,1007.80
2022-07-25T07:49:53.068Z,1007.83
2022-07-25T07:50:53.022Z,1007.84
2022-07-25T07:51:52.964Z,1007.79
2022-07-25T07:52:52.914Z,1007.84
2022-07-25T07:53:52.855Z,1007.79
2022-07-25T07:54:57.694Z,1007.84
2022-07-25T07:55:52.745Z,1007.77
2022-07-25T07:56:52.697Z,1007.76
2022-07-25T07:57:52.641Z,1007.72
2022-07-25T07:58:52.594Z,1007.77
2022-07-25T07:59:52.535Z,1007.77
2022-07-25T08:00:52.494Z,1007.74
2022-07-25T08:01:52.514Z,1007.79
2022-07-25T08:02:52.451Z,1007.74
2022-07-25T08:03:52.319Z,1007.75
2022-07-25T08:04:52.270Z,1007.74
2022-07-25T08:05:52.217Z,1007.75
2022-07-25T08:06:52.174Z,1007.71
2022-07-25T08:07:52.111Z,1007.71
2022-07-25T08:08:52.057Z,1007.73
2022-07-25T08:09:52.008Z,1007.67
2022-07-25T08:10:55.631Z,1007.73
2022-07-25T08:11:51.903Z,1007.69
2022-07-25T08:12:51.844Z,1007.69
2022-07-25T08:13:51.800Z,1007.65
2022-07-25T08:14:54.475Z,1007.65
2022-07-25T08:15:51.798Z,1007.68
2022-07-25T08:16:51.643Z,1007.65
2022-07-25T08:17:51.591Z,1007.66
2022-07-25T08:18:51.531Z,1007.71
2022-07-25T08:19:51.475Z,1007.66
2022-07-25T08:20:51.431Z,1007.64
2022-07-25T08:21:51.374Z,1007.60
2022-07-25T08:22:56.398Z,1007.61
2022-07-25T08:23:51.277Z,1007.56
2022-07-25T08:24:51.216Z,1007.54
2022-07-25T08:25:51.168Z,1007.51
2022-07-25T08:26:51.108Z,1007.59
2022-07-25T08:27:51.066Z,1007.54
2022-07-25T08:29:04.897Z,1007.53
2022-07-25T08:29:50.975Z,1007.50
2022-07-25T08:30:50.928Z,1007.54
2022-07-25T08:31:50.992Z,1007.55
2022-07-25T08:32:50.793Z,1007.51
2022-07-25T08:33:50.746Z,1007.52
2022-07-25T08:34:50.688Z,1007.50
2022-07-25T08:35:50.635Z,1007.50
2022-07-25T08:36:50.586Z,1007.49
2022-07-25T08:37:50.532Z,1007.51
2022-07-25T08:38:50.478Z,1007.48
2022-07-25T08:39:50.426Z,1007.44
2022-07-25T08:40:50.380Z,1007.46
2022-07-25T08:41:50.319Z,1007.40
2022-07-25T08:42:50.273Z,1007.42
2022-07-25T08:43:50.214Z,1007.42
2022-07-25T08:44:50.165Z,1007.43
2022-07-25T08:45:50.122Z,1007.47
2022-07-25T08:46:50.149Z,1007.45
2022-07-25T08:47:50.012Z,1007.41
2022-07-25T08:48:50.020Z,1007.46
2022-07-25T08:49:49.906Z,1007.41
2022-07-25T08:50:49.871Z,1007.43
2022-07-25T08:51:51.080Z,1007.42
2022-07-25T08:52:49.754Z,1007.42
2022-07-25T08:53:49.702Z,1007.41
2022-07-25T08:54:49.647Z,1007.44
2022-07-25T08:55:49.649Z,1007.42
2022-07-25T08:56:49.626Z,1007.39
2022-07-25T08:57:49.626Z,1007.38
2022-07-25T08:58:49.697Z,1007.40
2022-07-25T08:59:49.409Z,1007.44
2022-07-25T09:00:49.479Z,1007.36
2022-07-25T09:01:49.535Z,1007.34
2022-07-25T09:02:51.156Z,1007.28
2022-07-25T09:03:49.254Z,1007.26
2022-07-25T09:04:49.163Z,1007.23
2022-07-25T09:05:49.109Z,1007.19
2022-07-25T09:06:49.072Z,1007.21
2022-07-25T09:07:49.401Z,1007.16
2022-07-25T09:08:49.049Z,1007.20
2022-07-25T09:09:48.920Z,1007.13
2022-07-25T09:10:48.828Z,1007.14
2022-07-25T09:11:48.896Z,1007.14
2022-07-25T09:12:48.834Z,1007.13
2022-07-25T09:13:48.743Z,1007.13
2022-07-25T09:14:48.647Z,1007.05
2022-07-25T09:15:49.587Z,1007.04
2022-07-25T09:16:49.752Z,1007.03
2022-07-25T09:17:49.850Z,1007.06
2022-07-25T09:18:48.467Z,1007.05
2022-07-25T09:19:48.616Z,1007.08
2022-07-25T09:20:48.440Z,1007.08
2022-07-25T09:21:50.135Z,1007.02
2022-07-25T09:22:48.250Z,1006.97
2022-07-25T09:23:48.255Z,1006.94
2022-07-25T09:24:48.159Z,1007.04
2022-07-25T09:25:48.097Z,1006.96
2022-07-25T09:26:48.067Z,1006.99
2022-07-25T09:27:48.007Z,1006.94
2022-07-25T09:28:47.978Z,1006.91
2022-07-25T09:29:47.882Z,1006.88
2022-07-25T09:30:47.950Z,1006.90
2022-07-25T09:31:47.858Z,1006.83
2022-07-25T09:32:47.732Z,1006.77
2022-07-25T09:33:47.731Z,1006.79
2022-07-25T09:34:47.644Z,1006.78
2022-07-25T09:35:47.617Z,1006.75
2022-07-25T09:36:47.548Z,1006.73
2022-07-25T09:37:47.520Z,1006.68
2022-07-25T09:38:47.429Z,1006.69
2022-07-25T09:39:48.493Z,1006.66
2022-07-25T09:40:47.334Z,1006.63
2022-07-25T09:41:47.274Z,1006.67
2022-07-25T09:42:47.244Z,1006.63
2022-07-25T09:43:47.180Z,1006.62
2022-07-25T09:44:47.184Z,1006.61
2022-07-25T09:45:47.090Z,1006.54
2022-07-25T09:46:47.098Z,1006.58
2022-07-25T09:47:46.936Z,1006.56
2022-07-25T09:48:47.000Z,1006.64
2022-07-25T09:49:46.848Z,1006.56
2022-07-25T09:50:47.328Z,1006.51
2022-07-25T09:51:46.784Z,1006.54
2022-07-25T09:52:47.033Z,1006.54
2022-07-25T09:53:46.734Z,1006.48
2022-07-25T09:54:46.634Z,1006.47
2022-07-25T09:55:46.604Z,1006.46
2022-07-25T09:56:46.758Z,1006.47
2022-07-25T09:57:46.514Z,1006.43
2022-07-25T09:58:46.461Z,1006.38
2022-07-25T09:59:46.388Z,1006.43
2022-07-25T10:00:46.326Z,1006.43
2022-07-25T10:01:46.334Z,1006.36
2022-07-25T10:02:46.312Z,1006.32
2022-07-25T10:03:46.182Z,1006.37
2022-07-25T10:04:46.146Z,1006.28
2022-07-25T10:05:46.090Z,1006.33
2022-07-25T10:06:46.057Z,1006.30
2022-07-25T10:07:45.960Z,1006.27
2022-07-25T10:08:46.215Z,1006.30
2022-07-25T10:09:45.872Z,1006.27
2022-07-25T10:10:45.805Z,1006.22
2022-07-25T10:11:45.816Z,1006.21
2022-07-25T10:12:45.716Z,1006.19
2022-07-25T10:13:45.689Z,1006.17
2022-07-25T10:14:45.634Z,1006.13
2022-07-25T10:15:45.600Z,1006.09
2022-07-25T10:16:46.228Z,1006.03
2022-07-25T10:17:45.543Z,1006.10
2022-07-25T10:18:45.412Z,1006.03
2022-07-25T10:19:50.769Z,1006.07
2022-07-25T10:20:45.667Z,1006.03
2022-07-25T10:21:45.323Z,1006.05
2022-07-25T10:22:59.749Z,1006.04
2022-07-25T10:23:47.325Z,1006.00
2022-07-25T10:24:45.072Z,1005.99
2022-07-25T10:25:48.951Z,1005.93
2022-07-25T10:26:45.068Z,1006.00
2022-07-25T10:27:44.957Z,1005.98
2022-07-25T10:28:44.863Z,1005.96
2022-07-25T10:29:44.906Z,1005.88
2022-07-25T10:30:44.898Z,1005.88
2022-07-25T10:31:49.771Z,1005.93
2022-07-25T10:32:44.711Z,1005.95
2022-07-25T10:33:44.681Z,1005.89
2022-07-25T10:34:44.590Z,1005.88
2022-07-25T10:35:44.741Z,1005.83
2022-07-25T10:36:45.906Z,1005.81
2022-07-25T10:37:48.871Z,1005.80
2022-07-25T10:38:44.534Z,1005.79
2022-07-25T10:39:44.412Z,1005.82
2022-07-25T10:40:44.321Z,1005.76
2022-07-25T10:41:44.223Z,1005.79
2022-07-25T10:42:44.225Z,1005.68
2022-07-25T10:43:48.253Z,1005.72
2022-07-25T10:44:44.065Z,1005.71
2022-07-25T10:45:44.128Z,1005.65
2022-07-25T10:46:43.940Z,1005.68
2022-07-25T10:47:43.984Z,1005.60
2022-07-25T10:48:43.927Z,1005.62
2022-07-25T10:50:13.587Z,1005.59
2022-07-25T10:50:55.388Z,1005.65
2022-07-25T10:51:43.766Z,1005.58
2022-07-25T10:52:45.011Z,1005.62
2022-07-25T10:53:43.984Z,1005.59
2022-07-25T10:54:43.588Z,1005.52
2022-07-25T10:55:43.518Z,1005.53
2022-07-25T10:56:43.591Z,1005.60
2022-07-25T10:58:07.880Z,1005.45
2022-07-25T10:58:43.538Z,1005.46
2022-07-25T10:59:45.797Z,1005.48
2022-07-25T11:00:43.260Z,1005.45
2022-07-25T11:01:43.332Z,1005.45
2022-07-25T11:02:43.382Z,1005.45
2022-07-25T11:03:43.152Z,1005.38
2022-07-25T11:04:43.065Z,1005.26
2022-07-25T11:05:43.033Z,1005.30
2022-07-25T11:06:43.033Z,1005.37
2022-07-25T11:07:58.592Z,1005.33
2022-07-25T11:08:42.946Z,1005.33
2022-07-25T11:09:42.786Z,1005.32
2022-07-25T11:10:42.895Z,1005.25
2022-07-25T11:11:42.898Z,1005.26
2022-07-25T11:12:42.704Z,1005.35
2022-07-25T11:13:42.603Z,1005.33
2022-07-25T11:14:42.575Z,1005.36
2022-07-25T11:15:42.509Z,1005.31
2022-07-25T11:16:42.525Z,1005.32
2022-07-25T11:17:42.384Z,1005.27
2022-07-25T11:18:42.391Z,1005.29
2022-07-25T11:19:42.328Z,1005.22
2022-07-25T11:20:42.308Z,1005.15
2022-07-25T11:21:42.211Z,1005.18
2022-07-25T11:22:42.314Z,1005.12
2022-07-25T11:23:42.119Z,1005.13
2022-07-25T11:24:42.120Z,1005.20
2022-07-25T11:25:42.022Z,1005.21
2022-07-25T11:26:41.966Z,1005.18
2022-07-25T11:27:41.934Z,1005.15
2022-07-25T11:28:42.291Z,1005.14
2022-07-25T11:29:41.898Z,1005.08
2022-07-25T11:30:41.751Z,1005.08
2022-07-25T11:31:41.811Z,1005.02
2022-07-25T11:32:41.659Z,1005.02
2022-07-25T11:33:41.595Z,1005.01
2022-07-25T11:34:41.678Z,1004.98
2022-07-25T11:35:41.523Z,1004.89
2022-07-25T11:36:41.475Z,1004.94
2022-07-25T11:37:41.413Z,1004.90
2022-07-25T11:38:41.488Z,1004.82
2022-07-25T11:39:41.712Z,1004.96
2022-07-25T11:40:41.398Z,1004.90
2022-07-25T11:41:41.198Z,1004.85
2022-07-25T11:42:41.204Z,1004.91
2022-07-25T11:43:41.107Z,1004.84
2022-07-25T11:44:45.646Z,1004.88
2022-07-25T11:45:41.090Z,1004.92
2022-07-25T11:46:40.959Z,1004.83
2022-07-25T11:47:40.931Z,1004.84
2022-07-25T11:48:40.958Z,1004.85
2022-07-25T11:49:40.772Z,1004.87
2022-07-25T11:50:40.755Z,1004.76
2022-07-25T11:51:40.685Z,1004.88
2022-07-25T11:52:40.652Z,1004.74
2022-07-25T11:53:40.590Z,1004.81
2022-07-25T11:54:40.560Z,1004.78
2022-07-25T11:55:40.498Z,1004.77
2022-07-25T11:56:42.945Z,1004.74
2022-07-25T11:57:40.402Z,1004.76
2022-07-25T11:58:40.303Z,1004.75
2022-07-25T11:59:40.284Z,1004.70
2022-07-25T12:00:40.224Z,1004.70
2022-07-25T12:01:40.196Z,1004.64
2022-07-25T12:02:40.358Z,1004.60
2022-07-25T12:03:40.184Z,1004.56
2022-07-25T12:04:40.007Z,1004.59
2022-07-25T12:05:39.944Z,1004.54